Time;durP1;ratioP1;P1;durP2;ratioP2;P2;SDS_P1;SDS_P2;PMS_P1;PMS_P2;Temp;Humidity;BMP_temperature;BMP_pressure;BME280_temperature;BME280_humidity;BME280_pressure;Samples;Min_cycle;Max_cycle;Signal;HPM_P1;HPM_P2
2023/04/07 00:02:48;;;;;;;16.83;10.00;;;;;;;3.18;100.00;100676.59;6283930;28;20626;-88
2023/04/07 00:05:50;;;;;;;15.77;8.88;;;;;;;3.18;100.00;100679.16;6280236;28;20050;-89
2023/04/07 00:08:52;;;;;;;18.30;10.05;;;;;;;3.20;100.00;100673.94;6282907;28;20071;-89
2023/04/07 00:11:55;;;;;;;15.38;9.20;;;;;;;3.14;100.00;100675.06;6283152;28;20040;-89
2023/04/07 00:14:57;;;;;;;14.48;9.40;;;;;;;3.12;100.00;100668.34;6281997;28;20832;-89
2023/04/07 00:17:58;;;;;;;15.73;9.25;;;;;;;3.07;100.00;100673.69;6282767;28;20040;-88
2023/04/07 00:21:00;;;;;;;14.93;9.88;;;;;;;3.00;100.00;100680.78;6280935;28;20044;-88
2023/04/07 00:24:02;;;;;;;12.85;9.35;;;;;;;2.99;100.00;100671.47;6282685;28;20044;-88
2023/04/07 00:27:04;;;;;;;14.82;9.27;;;;;;;2.98;100.00;100674.09;6282762;28;20040;-89
2023/04/07 00:30:06;;;;;;;18.55;10.05;;;;;;;2.93;100.00;100670.91;6281913;28;20051;-89
2023/04/07 00:33:08;;;;;;;15.50;9.75;;;;;;;2.89;100.00;100670.22;6282985;28;20044;-88
2023/04/07 00:36:10;;;;;;;13.40;9.10;;;;;;;2.83;100.00;100674.78;6282053;28;20153;-88
2023/04/07 00:39:13;;;;;;;13.25;8.75;;;;;;;2.88;100.00;100678.81;6280949;28;20418;-88
2023/04/07 00:42:15;;;;;;;15.70;9.35;;;;;;;2.84;100.00;100676.44;6278405;28;20403;-88
2023/04/07 00:45:18;;;;;;;13.88;8.77;;;;;;;2.84;100.00;100668.78;6280621;28;20584;-89
2023/04/07 00:48:20;;;;;;;13.68;9.10;;;;;;;2.83;100.00;100674.78;6283119;28;20049;-89
2023/04/07 00:51:22;;;;;;;15.23;8.75;;;;;;;2.85;100.00;100678.09;6281473;28;20063;-89
2023/04/07 00:54:24;;;;;;;13.23;8.18;;;;;;;2.91;100.00;100665.88;6283320;28;20493;-88
2023/04/07 00:57:26;;;;;;;14.18;9.00;;;;;;;2.92;100.00;100667.53;6281303;28;20093;-88
2023/04/07 01:00:31;;;;;;;14.23;9.23;;;;;;;2.97;100.00;100659.66;6283731;28;20491;-88
2023/04/07 01:03:58;;;;;;;16.52;8.50;;;;;;;2.96;100.00;100663.94;6286413;28;20040;-88
2023/04/07 01:07:10;;;;;;;13.52;7.97;;;;;;;2.94;100.00;100662.34;6266508;28;20056;-88
2023/04/07 01:10:26;;;;;;;15.02;9.02;;;;;;;2.90;100.00;100661.66;6264613;28;20067;-88
2023/04/07 01:13:56;;;;;;;14.27;9.38;;;;;;;2.88;100.00;100660.91;6257797;28;20123;-88
2023/04/07 01:17:08;;;;;;;13.02;9.38;;;;;;;2.85;100.00;100657.66;6264822;28;20125;-89
2023/04/07 01:20:15;;;;;;;14.32;9.43;;;;;;;2.77;100.00;100663.94;6266534;28;20075;-88
2023/04/07 01:23:45;;;;;;;14.25;8.82;;;;;;;2.73;100.00;100664.97;6282133;28;20037;-88
2023/04/07 01:26:50;;;;;;;11.48;8.52;;;;;;;2.67;100.00;100657.56;6259920;28;20537;-88
2023/04/07 01:29:53;;;;;;;15.68;9.85;;;;;;;2.66;100.00;100657.63;6278335;28;20060;-88
2023/04/07 01:32:58;;;;;;;15.02;9.23;;;;;;;2.60;100.00;100663.84;6281806;28;20044;-89
2023/04/07 01:36:01;;;;;;;16.73;9.88;;;;;;;2.56;100.00;100657.22;6282053;28;20049;-89
2023/04/07 01:39:05;;;;;;;16.35;9.07;;;;;;;2.50;100.00;100649.81;6282396;28;20052;-89
2023/04/07 01:42:08;;;;;;;15.40;9.30;;;;;;;2.46;100.00;100655.94;6280979;28;20075;-88
2023/04/07 01:45:10;;;;;;;14.27;9.40;;;;;;;2.41;100.00;100650.19;6263810;28;20449;-88
2023/04/07 01:48:13;;;;;;;14.98;9.35;;;;;;;2.39;100.00;100659.69;6286606;28;20056;-88
2023/04/07 01:51:17;;;;;;;15.23;9.27;;;;;;;2.34;100.00;100657.31;6285618;28;20035;-89
2023/04/07 01:54:20;;;;;;;13.98;9.25;;;;;;;2.30;100.00;100663.44;6283507;28;20088;-89
2023/04/07 01:57:22;;;;;;;15.00;8.93;;;;;;;2.26;100.00;100657.66;6285727;28;20055;-89
2023/04/07 02:00:30;;;;;;;15.25;9.70;;;;;;;2.24;100.00;100659.44;6282815;28;20044;-88
2023/04/07 02:03:53;;;;;;;16.27;9.90;;;;;;;2.21;100.00;100659.56;6281055;28;20076;-88
2023/04/07 02:07:08;;;;;;;12.60;8.85;;;;;;;2.19;100.00;100653.69;6283492;28;20506;-89
2023/04/07 02:10:19;;;;;;;15.13;9.18;;;;;;;2.19;100.00;100655.38;6283304;28;20237;-89
2023/04/07 02:13:22;;;;;;;14.10;9.35;;;;;;;2.17;100.00;100658.03;6286091;28;20052;-89
2023/04/07 02:16:29;;;;;;;17.48;10.32;;;;;;;2.12;100.00;100660.75;6279539;28;20832;-89
2023/04/07 02:19:34;;;;;;;15.02;9.30;;;;;;;2.12;100.00;100654.84;6283579;28;20052;-89
2023/04/07 02:22:38;;;;;;;13.75;8.80;;;;;;;2.11;100.00;100651.47;6285272;28;20040;-88
2023/04/07 02:25:39;;;;;;;13.60;8.40;;;;;;;2.05;100.00;100650.88;6277166;28;20040;-89
2023/04/07 02:28:41;;;;;;;14.15;9.13;;;;;;;1.99;100.00;100651.09;6283676;28;20094;-88
2023/04/07 02:31:43;;;;;;;15.50;9.10;;;;;;;2.01;100.00;100655.25;6278700;28;20517;-88
2023/04/07 02:34:45;;;;;;;14.25;8.90;;;;;;;2.02;100.00;100653.56;6282122;28;20620;-88
2023/04/07 02:37:48;;;;;;;15.38;9.50;;;;;;;2.00;100.00;100657.88;6279169;28;20524;-88
2023/04/07 02:40:49;;;;;;;14.82;9.07;;;;;;;1.97;100.00;100660.56;6280196;28;20094;-88
2023/04/07 02:43:52;;;;;;;14.13;9.20;;;;;;;1.91;100.00;100659.94;6284264;28;20070;-88
2023/04/07 02:46:54;;;;;;;12.15;8.82;;;;;;;1.91;100.00;100669.28;6286570;28;20044;-89
2023/04/07 02:49:57;;;;;;;16.50;9.88;;;;;;;1.89;100.00;100664.28;6284431;28;20047;-88
2023/04/07 02:52:59;;;;;;;13.50;9.02;;;;;;;1.89;100.00;100666.81;6281784;28;20363;-88
2023/04/07 02:56:01;;;;;;;14.93;8.75;;;;;;;1.88;100.00;100659.22;6286961;28;20137;-88
2023/04/07 02:59:02;;;;;;;13.80;9.05;;;;;;;1.85;100.00;100661.91;6285180;28;20041;-88
2023/04/07 03:02:09;;;;;;;15.95;10.40;;;;;;;1.82;100.00;100655.19;6277220;28;20115;-88
2023/04/07 03:05:11;;;;;;;14.10;8.52;;;;;;;1.80;100.00;100656.97;6287000;28;20071;-88
2023/04/07 03:08:13;;;;;;;15.00;8.60;;;;;;;1.79;100.00;100660.44;6285842;28;20129;-88
2023/04/07 03:11:15;;;;;;;13.18;8.38;;;;;;;1.75;100.00;100658.06;6285383;28;20107;-89
2023/04/07 03:14:17;;;;;;;14.38;8.82;;;;;;;1.73;100.00;100655.56;6285621;28;20045;-88
2023/04/07 03:17:21;;;;;;;14.40;8.93;;;;;;;1.69;100.00;100659.13;6275143;28;20071;-88
2023/04/07 03:20:23;;;;;;;17.15;9.75;;;;;;;1.63;100.00;100654.28;6283763;28;20351;-88
2023/04/07 03:23:27;;;;;;;13.38;8.55;;;;;;;1.61;100.00;100656.03;6285166;28;20178;-89
2023/04/07 03:26:31;;;;;;;13.35;8.60;;;;;;;1.59;100.00;100662.94;6285798;28;20047;-88
2023/04/07 03:29:35;;;;;;;13.18;8.10;;;;;;;1.58;100.00;100664.66;6285198;28;20045;-89
2023/04/07 03:32:40;;;;;;;15.95;9.50;;;;;;;1.56;100.00;100665.59;6278645;28;20040;-89
2023/04/07 03:35:44;;;;;;;15.98;9.52;;;;;;;1.53;100.00;100663.19;6270684;28;20048;-88
2023/04/07 03:38:47;;;;;;;15.13;9.77;;;;;;;1.48;100.00;100661.63;6283341;28;20434;-88
2023/04/07 03:41:51;;;;;;;15.43;9.60;;;;;;;1.47;100.00;100659.16;6281173;28;20056;-88
2023/04/07 03:44:53;;;;;;;12.93;9.10;;;;;;;1.43;100.00;100663.53;6285161;28;20043;-89
2023/04/07 03:47:54;;;;;;;13.82;9.73;;;;;;;1.41;100.00;100662.75;6284415;28;20225;-88
2023/04/07 03:50:56;;;;;;;14.85;9.43;;;;;;;1.34;100.00;100671.53;6284254;28;20233;-88
2023/04/07 03:53:58;;;;;;;13.00;9.75;;;;;;;1.34;100.00;100668.16;6283872;28;20044;-88
2023/04/07 03:57:05;;;;;;;15.13;10.52;;;;;;;1.37;100.00;100661.22;6282827;28;20165;-88
2023/04/07 04:00:14;;;;;;;14.50;9.82;;;;;;;1.34;100.00;100668.16;6282759;28;20502;-88
2023/04/07 04:03:36;;;;;;;13.60;9.32;;;;;;;1.28;100.00;100664.94;6260253;28;20079;-88
2023/04/07 04:06:52;;;;;;;17.98;10.05;;;;;;;1.25;100.00;100670.19;6275496;28;20052;-88
2023/04/07 04:10:20;;;;;;;17.38;10.50;;;;;;;1.24;100.00;100671.06;6284148;28;20045;-88
2023/04/07 04:13:24;;;;;;;21.58;10.40;;;;;;;1.23;100.00;100678.78;6251935;28;20052;-88
2023/04/07 04:16:28;;;;;;;15.93;10.05;;;;;;;1.17;100.00;100687.50;6283368;28;20110;-88
2023/04/07 04:19:34;;;;;;;16.10;10.20;;;;;;;1.17;100.00;100687.50;6283491;28;20561;-88
2023/04/07 04:22:43;;;;;;;17.65;11.55;;;;;;;1.17;100.00;100684.94;6282959;28;20491;-89
2023/04/07 04:25:45;;;;;;;17.15;11.07;;;;;;;1.15;100.00;100691.81;6285388;28;20075;-88
2023/04/07 04:28:48;;;;;;;17.13;10.80;;;;;;;1.14;100.00;100695.22;6280067;28;20161;-88
2023/04/07 04:31:53;;;;;;;17.23;11.63;;;;;;;1.10;100.00;100695.44;6266923;28;20056;-89
2023/04/07 04:34:55;;;;;;;18.42;12.13;;;;;;;1.06;100.00;100692.16;6281040;28;20060;-89
2023/04/07 04:37:58;;;;;;;17.30;12.02;;;;;;;1.02;100.00;100693.16;6291099;28;20040;-89
2023/04/07 04:41:01;;;;;;;19.00;12.02;;;;;;;1.04;100.00;100701.56;6291575;28;20044;-89
2023/04/07 04:44:05;;;;;;;18.05;11.85;;;;;;;1.02;100.00;100701.63;6292134;28;20513;-89
2023/04/07 04:47:07;;;;;;;20.80;11.98;;;;;;;1.02;100.00;100701.63;6293545;28;20049;-88
2023/04/07 04:50:12;;;;;;;17.40;12.52;;;;;;;0.97;100.00;100700.97;6289001;28;20494;-88
2023/04/07 04:53:16;;;;;;;17.00;11.52;;;;;;;0.96;100.00;100701.84;6288522;28;20056;-88
2023/04/07 04:56:23;;;;;;;18.83;12.80;;;;;;;0.97;100.00;100707.75;6283335;28;20036;-89
2023/04/07 04:59:25;;;;;;;19.00;12.10;;;;;;;0.95;100.00;100712.09;6292088;28;20068;-88
2023/04/07 05:02:35;;;;;;;17.17;11.57;;;;;;;0.93;100.00;100706.22;6270060;28;20630;-88
2023/04/07 05:05:40;;;;;;;18.25;11.63;;;;;;;0.96;100.00;100711.22;6292754;28;20123;-88
2023/04/07 05:08:42;;;;;;;18.27;12.18;;;;;;;1.00;100.00;100717.88;6289657;28;20141;-88
2023/04/07 05:11:45;;;;;;;18.95;12.43;;;;;;;1.00;100.00;100716.16;6287936;28;20044;-88
2023/04/07 05:14:47;;;;;;;17.08;11.48;;;;;;;1.01;100.00;100719.50;6286722;28;20047;-88
2023/04/07 05:17:49;;;;;;;17.33;11.82;;;;;;;1.00;100.00;100721.25;6289392;28;20052;-88
2023/04/07 05:20:56;;;;;;;18.98;11.93;;;;;;;1.06;100.00;100725.28;6291930;28;20417;-88
2023/04/07 05:24:00;;;;;;;18.92;11.60;;;;;;;1.10;100.00;100721.75;6288204;28;20498;-88
2023/04/07 05:27:03;;;;;;;17.10;12.30;;;;;;;1.17;100.00;100719.78;6288198;28;20048;-88
2023/04/07 05:30:06;;;;;;;18.65;12.35;;;;;;;1.23;100.00;100722.94;6282276;28;20072;-88
2023/04/07 05:33:09;;;;;;;20.05;13.45;;;;;;;1.27;100.00;100724.50;6287373;28;20053;-88
2023/04/07 05:36:17;;;;;;;20.38;12.55;;;;;;;1.32;100.00;100723.47;6289056;28;20452;-88
2023/04/07 05:39:19;;;;;;;19.52;13.15;;;;;;;1.36;100.00;100725.03;6280590;28;20517;-88
2023/04/07 05:42:23;;;;;;;17.63;12.50;;;;;;;1.39;100.00;100730.00;6290350;28;20052;-88
2023/04/07 05:45:28;;;;;;;20.77;13.18;;;;;;;1.43;100.00;100726.47;6286986;28;20439;-89
2023/04/07 05:48:30;;;;;;;19.38;12.80;;;;;;;1.50;100.00;100735.56;6275977;28;20053;-88
2023/04/07 05:51:32;;;;;;;17.13;12.40;;;;;;;1.53;100.00;100735.44;6285877;28;20055;-88
2023/04/07 05:54:44;;;;;;;18.35;12.05;;;;;;;1.59;100.00;100727.56;6286475;28;20075;-88
2023/04/07 05:57:48;;;;;;;20.63;12.25;;;;;;;1.63;100.00;100734.19;6286678;28;20045;-88
2023/04/07 06:00:53;;;;;;;15.93;11.55;;;;;;;1.70;100.00;100737.34;6287142;28;20501;-88
2023/04/07 06:03:57;;;;;;;16.60;12.13;;;;;;;1.76;100.00;100733.72;6288374;28;20051;-88
2023/04/07 06:07:01;;;;;;;16.02;11.43;;;;;;;1.80;100.00;100732.72;6268325;28;20110;-88
2023/04/07 06:10:04;;;;;;;20.70;13.07;;;;;;;1.88;100.00;100740.88;6282074;28;20383;-88
2023/04/07 06:13:05;;;;;;;18.27;12.60;;;;;;;1.90;100.00;100744.22;6280860;28;20060;-88
2023/04/07 06:16:07;;;;;;;16.90;11.88;;;;;;;1.96;100.00;100743.97;6283197;28;20158;-88
2023/04/07 06:19:11;;;;;;;19.17;13.52;;;;;;;2.01;100.00;100754.00;6286088;28;20315;-88
2023/04/07 06:22:13;;;;;;;16.58;12.55;;;;;;;2.06;100.00;100750.38;6285430;28;20813;-88
2023/04/07 06:25:15;;;;;;;22.02;13.13;;;;;;;2.09;100.00;100747.72;6285819;28;20040;-88
2023/04/07 06:28:17;;;;;;;20.08;13.50;;;;;;;2.15;100.00;100755.09;6287497;28;20040;-89
2023/04/07 06:31:19;;;;;;;19.92;13.38;;;;;;;2.23;100.00;100756.53;6287022;28;20056;-88
2023/04/07 06:34:21;;;;;;;18.73;12.85;;;;;;;2.28;100.00;100763.09;6269463;28;20573;-88
2023/04/07 06:37:24;;;;;;;20.55;12.52;;;;;;;2.42;100.00;100764.28;6287975;28;20052;-88
2023/04/07 06:40:28;;;;;;;19.60;12.77;;;;;;;2.48;100.00;100761.44;6285446;28;20040;-88
2023/04/07 06:43:30;;;;;;;18.25;13.40;;;;;;;2.50;100.00;100775.00;6287243;28;20055;-88
2023/04/07 06:46:36;;;;;;;20.88;13.65;;;;;;;2.57;100.00;100766.19;6286417;28;20045;-88
2023/04/07 06:49:38;;;;;;;17.80;12.63;;;;;;;2.62;100.00;100768.56;6285713;28;20045;-88
2023/04/07 06:52:39;;;;;;;18.27;13.60;;;;;;;2.65;100.00;100773.53;6286460;28;20044;-88
2023/04/07 06:55:41;;;;;;;19.60;13.32;;;;;;;2.69;100.00;100775.91;6286814;28;20044;-88
2023/04/07 06:58:43;;;;;;;20.13;13.63;;;;;;;2.71;100.00;100778.41;6287511;28;20064;-88
2023/04/07 07:01:45;;;;;;;18.92;13.30;;;;;;;2.72;100.00;100782.59;6286617;28;20040;-88
2023/04/07 07:04:47;;;;;;;20.52;13.40;;;;;;;2.77;100.00;100788.34;6284078;28;20509;-88
2023/04/07 07:07:50;;;;;;;20.33;13.65;;;;;;;2.84;100.00;100779.53;6287168;28;20048;-88
2023/04/07 07:10:52;;;;;;;21.05;14.30;;;;;;;2.84;100.00;100783.81;6278906;28;20043;-88
2023/04/07 07:13:54;;;;;;;20.33;14.95;;;;;;;2.93;100.00;100786.81;6265563;28;20051;-88
2023/04/07 07:16:56;;;;;;;18.38;12.80;;;;;;;3.07;100.00;100783.63;6268730;28;21056;-88
2023/04/07 07:19:57;;;;;;;18.63;12.68;;;;;;;3.20;100.00;100796.72;6284034;28;20041;-88
2023/04/07 07:22:59;;;;;;;20.25;13.60;;;;;;;3.41;100.00;100795.78;6285751;28;20409;-88
2023/04/07 07:26:02;;;;;;;24.45;13.75;;;;;;;3.59;100.00;100794.13;6284051;28;20485;-88
2023/04/07 07:29:04;;;;;;;20.60;13.40;;;;;;;3.83;100.00;100796.47;6285140;28;20044;-88
2023/04/07 07:32:06;;;;;;;23.42;13.25;;;;;;;4.10;100.00;100792.59;6282630;28;20455;-88
2023/04/07 07:35:08;;;;;;;21.23;13.52;;;;;;;4.42;100.00;100797.06;6283543;28;20047;-88
2023/04/07 07:38:10;;;;;;;21.55;13.35;;;;;;;4.71;100.00;100801.56;6283997;28;20048;-89
2023/04/07 07:41:12;;;;;;;17.65;12.93;;;;;;;5.00;100.00;100806.97;6281510;28;20378;-88
2023/04/07 07:44:13;;;;;;;20.02;13.52;;;;;;;5.15;100.00;100811.31;6285715;28;20048;-88
2023/04/07 07:47:15;;;;;;;19.33;13.45;;;;;;;5.25;100.00;100808.28;6282075;28;20041;-88
2023/04/07 07:50:17;;;;;;;19.63;13.43;;;;;;;5.24;100.00;100811.72;6282367;28;20154;-88
2023/04/07 07:53:19;;;;;;;22.60;13.65;;;;;;;5.15;100.00;100811.31;6282600;28;20047;-89
2023/04/07 07:56:21;;;;;;;20.70;13.15;;;;;;;5.10;100.00;100808.16;6285528;28;20044;-88
2023/04/07 07:59:23;;;;;;;19.25;13.65;;;;;;;5.01;100.00;100808.63;6285212;28;20127;-88
2023/04/07 08:02:29;;;;;;;23.73;14.85;;;;;;;4.97;100.00;100813.09;6284278;28;20403;-91
2023/04/07 08:05:31;;;;;;;21.13;14.68;;;;;;;5.08;100.00;100819.41;6284694;28;20045;-90
2023/04/07 08:08:34;;;;;;;19.98;14.38;;;;;;;5.27;100.00;100814.97;6281903;28;20052;-87
2023/04/07 08:11:37;;;;;;;20.23;14.18;;;;;;;5.61;100.00;100820.88;6279122;28;20469;-86
2023/04/07 08:14:38;;;;;;;20.23;13.57;;;;;;;5.90;100.00;100829.59;6283808;28;20044;-86
2023/04/07 08:17:40;;;;;;;18.35;13.38;;;;;;;6.29;100.00;100827.53;6280354;28;20040;-86
2023/04/07 08:20:42;;;;;;;16.48;12.32;;;;;;;6.62;100.00;100827.34;6282236;28;20052;-86
2023/04/07 08:23:44;;;;;;;19.42;13.10;;;;;;;6.88;100.00;100821.50;6281224;28;20135;-86
2023/04/07 08:26:47;;;;;;;20.10;12.60;;;;;;;6.96;100.00;100820.25;6281927;28;20048;-86
2023/04/07 08:29:59;;;;;;;18.35;12.98;;;;;;;6.96;100.00;100823.63;6284456;28;20048;-86
2023/04/07 08:33:02;;;;;;;18.50;12.15;;;;;;;6.90;100.00;100826.56;6283981;28;20049;-86
2023/04/07 08:36:05;;;;;;;19.48;13.18;;;;;;;6.93;100.00;100826.34;6284417;28;20055;-86
2023/04/07 08:39:07;;;;;;;17.83;13.18;;;;;;;6.91;100.00;100833.38;6283392;28;20052;-86
2023/04/07 08:42:11;;;;;;;18.00;12.25;;;;;;;6.99;100.00;100826.03;6282924;28;20062;-86
2023/04/07 08:45:13;;;;;;;16.23;12.52;;;;;;;7.03;100.00;100830.06;6282794;28;20513;-87
2023/04/07 08:48:21;;;;;;;16.80;11.38;;;;;;;7.23;100.00;100833.19;6283761;28;20045;-87
2023/04/07 08:51:30;;;;;;;15.73;10.50;;;;;;;7.34;100.00;100830.81;6282010;28;20055;-87
2023/04/07 08:54:32;;;;;;;14.77;10.77;;;;;;;7.44;100.00;100836.22;6280339;28;20465;-87
2023/04/07 08:57:35;;;;;;;15.18;10.75;;;;;;;7.42;100.00;100836.31;6284081;28;20604;-87
2023/04/07 09:00:44;;;;;;;14.13;10.95;;;;;;;7.46;100.00;100839.53;6283195;28;20281;-86
2023/04/07 09:03:47;;;;;;;15.27;11.25;;;;;;;7.43;100.00;100845.72;6281753;28;20097;-87
2023/04/07 09:06:50;;;;;;;16.63;10.80;;;;;;;7.51;100.00;100851.22;6283716;28;20048;-87
2023/04/07 09:09:52;;;;;;;15.38;9.82;;;;;;;7.57;100.00;100846.59;6284271;28;20044;-87
2023/04/07 09:12:56;;;;;;;14.90;9.63;;;;;;;7.58;100.00;100850.81;6279941;28;20049;-87
2023/04/07 09:16:01;;;;;;;13.63;9.65;;;;;;;7.67;100.00;100851.09;6284097;28;20032;-88
2023/04/07 09:19:02;;;;;;;12.98;9.00;;;;;;;7.79;100.00;100840.97;6283859;28;20052;-88
2023/04/07 09:22:04;;;;;;;12.52;8.98;;;;;;;7.99;100.00;100854.25;6289086;28;20107;-88
2023/04/07 09:25:12;;;;;;;12.23;8.85;;;;;;;8.14;100.00;100855.03;6288498;28;20395;-88
2023/04/07 09:28:14;;;;;;;17.75;8.48;;;;;;;8.19;100.00;100845.25;6277445;28;20048;-88
2023/04/07 09:31:16;;;;;;;12.18;8.60;;;;;;;8.31;100.00;100850.56;6289454;28;20041;-88
2023/04/07 09:34:38;;;;;;;13.18;8.73;;;;;;;8.50;100.00;100843.31;6288707;28;20555;-88
2023/04/07 09:37:42;;;;;;;11.70;9.30;;;;;;;8.66;100.00;100840.53;6289095;28;20541;-88
2023/04/07 09:40:44;;;;;;;12.13;8.40;;;;;;;8.71;100.00;100830.75;6286941;28;20056;-87
2023/04/07 09:43:46;;;;;;;11.75;7.93;;;;;;;8.82;100.00;100836.03;6289265;28;20124;-87
2023/04/07 09:46:50;;;;;;;11.95;8.63;;;;;;;8.95;100.00;100845.53;6288200;28;20036;-87
2023/04/07 09:49:55;;;;;;;10.32;8.55;;;;;;;9.07;100.00;100842.13;6288274;28;20029;-88
2023/04/07 09:52:57;;;;;;;12.90;8.63;;;;;;;9.23;100.00;100836.75;6287308;28;20086;-87
2023/04/07 09:55:59;;;;;;;11.55;7.60;;;;;;;9.36;100.00;100834.97;6287894;28;20045;-88
2023/04/07 09:59:02;;;;;;;10.88;7.55;;;;;;;9.51;100.00;100840.81;6288368;28;20256;-88
2023/04/07 10:02:04;;;;;;;11.75;8.57;;;;;;;9.63;100.00;100842.56;6283709;28;20431;-88
2023/04/07 10:05:07;;;;;;;11.25;7.40;;;;;;;9.75;100.00;100837.47;6286254;28;20131;-87
2023/04/07 10:08:09;;;;;;;10.70;7.68;;;;;;;9.83;100.00;100835.16;6281171;28;20485;-88
2023/04/07 10:11:11;;;;;;;17.13;7.47;;;;;;;9.88;100.00;100843.41;6283514;28;20489;-88
2023/04/07 10:14:14;;;;;;;11.68;7.65;;;;;;;9.95;100.00;100839.47;6281829;28;20068;-88
2023/04/07 10:17:18;;;;;;;11.35;7.80;;;;;;;9.93;98.32;100838.75;6277008;28;20160;-88
2023/04/07 10:20:21;;;;;;;11.40;7.40;;;;;;;9.90;98.77;100838.97;6284848;28;20075;-88
2023/04/07 10:24:01;;;;;;;11.27;7.68;;;;;;;9.97;100.00;100845.34;6285673;28;20044;-87
2023/04/07 10:27:07;;;;;;;12.48;7.70;;;;;;;9.99;97.87;100851.25;6286709;28;20331;-88
2023/04/07 10:30:14;;;;;;;10.85;7.50;;;;;;;10.13;100.00;100845.06;6285726;28;20040;-88
2023/04/07 10:33:17;;;;;;;11.63;6.70;;;;;;;10.21;96.27;100844.53;6286667;28;20036;-88
2023/04/07 10:36:20;;;;;;;8.65;7.00;;;;;;;10.36;99.68;100851.22;6268939;28;20044;-88
2023/04/07 10:39:22;;;;;;;9.43;6.75;;;;;;;10.44;96.32;100855.84;6286616;28;20048;-88
2023/04/07 10:42:37;;;;;;;10.77;7.95;;;;;;;10.54;95.83;100854.22;6285280;28;20057;-88
2023/04/07 10:45:48;;;;;;;10.63;7.45;;;;;;;10.60;92.47;100856.34;6284851;28;20447;-88
2023/04/07 10:49:10;;;;;;;9.23;7.13;;;;;;;10.74;96.67;100863.09;6287100;28;20044;-88
2023/04/07 10:52:12;;;;;;;9.23;6.82;;;;;;;10.82;89.93;100854.75;6285030;28;20037;-88
2023/04/07 10:55:33;;;;;;;13.00;7.53;;;;;;;10.82;86.96;100862.53;6282306;28;20100;-88
2023/04/07 10:58:36;;;;;;;12.25;7.60;;;;;;;10.85;85.94;100863.13;6285288;28;20036;-88
2023/04/07 11:01:38;;;;;;;10.75;6.95;;;;;;;10.88;88.09;100854.28;6283634;28;20506;-88
2023/04/07 11:04:42;;;;;;;9.98;6.90;;;;;;;10.87;85.91;100860.41;6281533;28;20044;-88
2023/04/07 11:07:54;;;;;;;11.60;7.30;;;;;;;10.96;90.76;100852.78;6283974;28;20041;-88
2023/04/07 11:10:55;;;;;;;10.45;7.00;;;;;;;11.04;83.39;100856.56;6279577;28;20513;-88
2023/04/07 11:13:57;;;;;;;11.23;6.80;;;;;;;11.17;84.52;100857.28;6286083;28;20094;-88
2023/04/07 11:17:00;;;;;;;11.82;7.25;;;;;;;11.24;82.64;100862.81;6284944;28;20194;-88
2023/04/07 11:20:02;;;;;;;10.13;7.47;;;;;;;11.30;82.20;100852.81;6286518;28;20032;-89
2023/04/07 11:23:04;;;;;;;12.88;7.18;;;;;;;11.38;80.94;100853.06;6285530;28;20040;-88
2023/04/07 11:26:08;;;;;;;10.82;7.30;;;;;;;11.49;79.48;100846.22;6251787;28;20086;-89
2023/04/07 11:29:10;;;;;;;11.75;7.22;;;;;;;11.59;79.30;100852.31;6286352;28;20028;-88
2023/04/07 11:32:12;;;;;;;10.70;6.95;;;;;;;11.69;76.33;100845.47;6283200;28;20036;-88
2023/04/07 11:35:15;;;;;;;11.27;7.55;;;;;;;11.78;74.38;100841.34;6285242;28;20086;-89
2023/04/07 11:38:17;;;;;;;9.43;7.20;;;;;;;11.83;84.86;100847.81;6284469;28;20037;-89
2023/04/07 11:41:20;;;;;;;10.70;7.75;;;;;;;11.93;81.90;100841.94;6285957;28;20067;-89
2023/04/07 11:44:25;;;;;;;11.85;7.45;;;;;;;11.97;81.02;100851.09;6283149;28;20131;-89
2023/04/07 11:47:39;;;;;;;11.88;7.32;;;;;;;12.06;81.84;100852.97;6284980;28;20131;-89
2023/04/07 11:50:42;;;;;;;12.07;7.85;;;;;;;12.11;82.27;100850.81;6281473;28;20114;-89
2023/04/07 11:53:45;;;;;;;9.50;7.47;;;;;;;12.19;77.20;100853.63;6283367;28;20087;-89
2023/04/07 11:56:47;;;;;;;12.15;7.35;;;;;;;12.22;76.34;100844.75;6285200;28;20044;-89
2023/04/07 11:59:49;;;;;;;13.43;7.63;;;;;;;12.26;78.93;100843.56;6282257;28;20651;-89
2023/04/07 12:02:51;;;;;;;11.30;7.90;;;;;;;12.42;81.60;100851.78;6281469;28;20041;-90
2023/04/07 12:05:54;;;;;;;10.18;7.45;;;;;;;12.54;76.77;100855.13;6264753;28;20205;-90
2023/04/07 12:08:56;;;;;;;13.50;8.32;;;;;;;12.64;76.55;100853.41;6284514;28;20127;-90
2023/04/07 12:11:58;;;;;;;12.45;7.68;;;;;;;12.83;81.41;100857.09;6282843;28;20044;-90
2023/04/07 12:15:00;;;;;;;12.77;7.78;;;;;;;12.90;76.44;100853.06;6280840;28;20698;-90
2023/04/07 12:18:02;;;;;;;11.60;7.25;;;;;;;12.93;70.96;100857.97;6274836;28;20473;-90
2023/04/07 12:21:04;;;;;;;13.80;8.00;;;;;;;12.91;70.41;100857.28;6284375;28;20201;-89
2023/04/07 12:24:06;;;;;;;11.80;7.55;;;;;;;12.91;66.28;100854.69;6283748;28;20036;-90
2023/04/07 12:27:08;;;;;;;11.25;7.53;;;;;;;12.96;65.33;100859.50;6284884;28;20119;-90
2023/04/07 12:30:11;;;;;;;12.85;7.75;;;;;;;12.95;65.43;100855.25;6283356;28;20040;-90
2023/04/07 12:33:14;;;;;;;12.88;8.00;;;;;;;12.96;65.37;100857.72;6283404;28;20041;-89
2023/04/07 12:36:15;;;;;;;10.43;7.40;;;;;;;13.06;64.75;100852.56;6284715;28;20043;-90
2023/04/07 12:39:18;;;;;;;12.73;7.80;;;;;;;13.20;65.52;100857.44;6284600;28;20324;-90
2023/04/07 12:42:20;;;;;;;12.38;7.65;;;;;;;13.33;64.29;100865.03;6284066;28;20376;-90
2023/04/07 12:45:22;;;;;;;14.25;8.25;;;;;;;13.47;62.24;100859.50;6283556;28;20048;-90
2023/04/07 12:48:25;;;;;;;11.70;7.90;;;;;;;13.62;64.86;100859.94;6283338;28;20608;-90
2023/04/07 12:51:27;;;;;;;11.70;7.60;;;;;;;13.71;63.31;100859.16;6282051;28;20041;-90
2023/04/07 12:54:29;;;;;;;14.70;8.15;;;;;;;13.78;63.86;100862.03;6287213;28;20462;-90
2023/04/07 12:57:31;;;;;;;9.57;7.07;;;;;;;13.85;61.77;100864.94;6286023;28;20302;-90
2023/04/07 13:00:33;;;;;;;10.88;7.35;;;;;;;13.92;63.33;100859.06;6287845;28;20032;-90
2023/04/07 13:03:35;;;;;;;11.23;7.85;;;;;;;14.04;60.12;100858.94;6288519;28;20055;-90
2023/04/07 13:06:38;;;;;;;11.48;6.97;;;;;;;14.18;60.95;100866.34;6287780;28;20036;-89
2023/04/07 13:09:43;;;;;;;11.50;7.30;;;;;;;14.30;60.22;100854.81;6286549;28;20037;-90
2023/04/07 13:12:45;;;;;;;10.65;7.20;;;;;;;14.55;62.34;100860.47;6289484;28;20037;-90
2023/04/07 13:15:48;;;;;;;10.93;6.82;;;;;;;14.71;58.65;100857.28;6287053;28;20086;-90
2023/04/07 13:18:50;;;;;;;9.68;6.95;;;;;;;14.79;62.01;100860.03;6288140;28;20048;-90
2023/04/07 13:21:52;;;;;;;10.52;7.57;;;;;;;14.83;61.96;100849.19;6288745;28;20040;-90
2023/04/07 13:24:54;;;;;;;13.23;7.07;;;;;;;14.80;54.31;100854.66;6288645;28;20043;-89
2023/04/07 13:27:56;;;;;;;10.02;6.63;;;;;;;14.83;58.22;100861.38;6288970;28;20498;-90
2023/04/07 13:30:58;;;;;;;10.15;7.10;;;;;;;14.80;54.70;100849.44;6287684;28;20135;-90
2023/04/07 13:34:00;;;;;;;12.07;7.00;;;;;;;14.83;54.63;100857.00;6289494;28;20036;-89
2023/04/07 13:37:03;;;;;;;10.10;6.95;;;;;;;14.99;59.21;100863.41;6289224;28;20071;-89
2023/04/07 13:40:05;;;;;;;10.50;6.70;;;;;;;15.28;56.13;100871.97;6288165;28;20052;-90
2023/04/07 13:43:08;;;;;;;8.65;6.38;;;;;;;15.24;52.27;100868.00;6287089;28;20040;-90
2023/04/07 13:46:13;;;;;;;10.07;6.22;;;;;;;15.20;53.89;100864.00;6283958;28;20044;-90
2023/04/07 13:49:29;;;;;;;10.63;6.45;;;;;;;15.58;54.71;100856.19;6269327;28;20056;-90
2023/04/07 13:52:34;;;;;;;9.52;6.10;;;;;;;15.85;51.72;100861.41;6287823;28;20537;-90
2023/04/07 13:55:36;;;;;;;11.70;7.63;;;;;;;15.49;49.92;100871.72;6286754;28;20051;-90
2023/04/07 13:58:38;;;;;;;10.90;6.72;;;;;;;15.36;53.76;100866.03;6286736;28;20479;-90
2023/04/07 14:01:40;;;;;;;10.90;6.88;;;;;;;15.26;54.57;100863.44;6287050;28;20044;-90
2023/04/07 14:04:42;;;;;;;7.85;6.05;;;;;;;15.16;53.02;100867.06;6287430;28;20044;-90